Time;durP1;ratioP1;P1;durP2;ratioP2;P2;SDS_P1;SDS_P2;PMS_P1;PMS_P2;Temp;Humidity;BMP_temperature;BMP_pressure;BME280_temperature;BME280_humidity;BME280_pressure;Samples;Min_cycle;Max_cycle;Signal;HPM_P1;HPM_P2
2022/09/05 00:00:04;;;;;;;6.32;2.97;;;;;;;;;;5013989;28;20037;-84
2022/09/05 00:03:00;;;;;;;6.55;2.92;;;;;;;;;;5018250;28;20033;-84
2022/09/05 00:05:47;;;;;;;5.87;3.13;;;;;;;;;;5021297;28;20735;-83
2022/09/05 00:08:30;;;;;;;5.20;2.90;;;;;;;;;;5003501;28;20401;-83
2022/09/05 00:11:08;;;;;;;6.95;2.95;;;;;;;;;;5003222;28;20572;-83
2022/09/05 00:13:38;;;;;;;5.78;3.25;;;;;;;;;;5003106;28;20132;-85
2022/09/05 00:16:12;;;;;;;6.90;3.10;;;;;;;;;;4992619;28;20034;-84
2022/09/05 00:18:49;;;;;;;5.03;2.70;;;;;;;;;;5017581;28;20053;-84
2022/09/05 00:21:31;;;;;;;5.28;2.78;;;;;;;;;;5019502;28;20132;-84
2022/09/05 00:23:56;;;;;;;5.68;3.10;;;;;;;;;;5003382;28;20033;-84
2022/09/05 00:26:35;;;;;;;9.68;3.45;;;;;;;;;;5018666;28;20038;-83
2022/09/05 00:29:03;;;;;;;7.13;3.13;;;;;;;;;;5021573;28;20042;-83
2022/09/05 00:31:46;;;;;;;7.72;3.13;;;;;;;;;;5008059;28;20044;-84
2022/09/05 00:34:38;;;;;;;7.05;3.17;;;;;;;;;;5006734;28;20176;-84
2022/09/05 00:37:04;;;;;;;8.15;3.30;;;;;;;;;;5017833;28;20396;-84
2022/09/05 00:39:36;;;;;;;6.88;3.13;;;;;;;;;;5001921;28;20095;-83
2022/09/05 00:42:21;;;;;;;6.45;3.28;;;;;;;;;;5003452;28;20048;-82
2022/09/05 00:44:59;;;;;;;5.63;3.00;;;;;;;;;;4991806;28;20047;-84
2022/09/05 00:47:43;;;;;;;5.82;2.83;;;;;;;;;;4986116;28;20384;-84
2022/09/05 00:50:14;;;;;;;8.50;3.25;;;;;;;;;;5001596;28;20044;-85
2022/09/05 00:52:52;;;;;;;5.53;3.20;;;;;;;;;;5008841;28;20045;-83
2022/09/05 00:55:43;;;;;;;4.90;2.95;;;;;;;;;;5003906;28;20084;-83
2022/09/05 00:58:30;;;;;;;5.65;2.90;;;;;;;;;;4985192;28;20037;-85
2022/09/05 01:00:57;;;;;;;6.60;3.47;;;;;;;;;;5000649;28;20049;-84
2022/09/05 01:03:31;;;;;;;6.68;3.10;;;;;;;;;;5007948;28;20531;-84
2022/09/05 01:06:08;;;;;;;5.07;2.90;;;;;;;;;;5016424;28;20136;-85
2022/09/05 01:09:08;;;;;;;4.88;2.78;;;;;;;;;;5021385;28;20519;-83
2022/09/05 01:11:43;;;;;;;5.43;3.10;;;;;;;;;;5007796;28;20034;-83
2022/09/05 01:14:53;;;;;;;5.00;3.10;;;;;;;;;;4986632;28;20391;-83
2022/09/05 01:17:45;;;;;;;5.53;3.10;;;;;;;;;;4977861;28;20041;-83
2022/09/05 01:21:06;;;;;;;6.75;2.88;;;;;;;;;;5016348;28;20038;-84
2022/09/05 01:23:55;;;;;;;6.72;3.22;;;;;;;;;;5012069;28;20043;-83
2022/09/05 01:26:36;;;;;;;6.00;3.30;;;;;;;;;;5017040;28;20558;-83
2022/09/05 01:29:17;;;;;;;5.43;2.88;;;;;;;;;;5017281;28;20045;-85
2022/09/05 01:32:16;;;;;;;7.15;3.22;;;;;;;;;;5018983;28;20617;-84
2022/09/05 01:34:59;;;;;;;5.82;3.20;;;;;;;;;;4989841;28;20456;-84
2022/09/05 01:37:37;;;;;;;7.60;3.10;;;;;;;;;;4998020;28;20041;-84
2022/09/05 01:40:14;;;;;;;5.00;2.95;;;;;;;;;;5007624;28;20133;-84
2022/09/05 01:42:47;;;;;;;6.38;3.40;;;;;;;;;;5002201;28;20038;-83
2022/09/05 01:45:46;;;;;;;6.15;3.03;;;;;;;;;;5016418;28;20026;-84
2022/09/05 01:48:14;;;;;;;6.15;3.30;;;;;;;;;;4989250;28;20120;-84
2022/09/05 01:50:58;;;;;;;6.00;3.47;;;;;;;;;;5016034;28;20555;-83
2022/09/05 01:53:32;;;;;;;5.85;3.63;;;;;;;;;;5018734;28;20509;-83
2022/09/05 01:56:28;;;;;;;5.60;3.60;;;;;;;;;;5016022;28;20489;-84
2022/09/05 01:59:03;;;;;;;5.68;3.35;;;;;;;;;;4987823;28;20160;-83
2022/09/05 02:01:39;;;;;;;5.55;3.42;;;;;;;;;;5018840;28;20045;-85
2022/09/05 02:04:38;;;;;;;7.60;3.90;;;;;;;;;;5002942;28;20117;-84
2022/09/05 02:07:35;;;;;;;6.65;3.40;;;;;;;;;;5016282;28;20044;-84
2022/09/05 02:10:24;;;;;;;7.72;3.33;;;;;;;;;;4994507;28;20113;-83
2022/09/05 02:13:09;;;;;;;5.78;3.50;;;;;;;;;;4998844;28;20038;-83
2022/09/05 02:15:43;;;;;;;6.15;3.60;;;;;;;;;;4985841;28;20045;-83
2022/09/05 02:18:14;;;;;;;5.90;3.50;;;;;;;;;;4980838;28;20037;-83
2022/09/05 02:20:40;;;;;;;7.93;3.85;;;;;;;;;;4999369;28;20036;-84
2022/09/05 02:23:37;;;;;;;6.90;3.40;;;;;;;;;;5018928;28;21085;-84
2022/09/05 02:26:17;;;;;;;7.18;3.75;;;;;;;;;;5004911;28;20065;-83
2022/09/05 02:28:42;;;;;;;6.40;3.50;;;;;;;;;;5007100;28;20042;-83
2022/09/05 02:31:38;;;;;;;7.03;3.90;;;;;;;;;;5020670;28;20033;-85
2022/09/05 02:34:11;;;;;;;6.38;3.50;;;;;;;;;;4991463;28;20472;-83
2022/09/05 02:37:04;;;;;;;6.63;3.75;;;;;;;;;;4998268;28;20602;-84
2022/09/05 02:39:38;;;;;;;6.40;3.67;;;;;;;;;;5015387;28;20030;-82
2022/09/05 02:42:18;;;;;;;7.38;3.70;;;;;;;;;;5006204;28;20388;-84
2022/09/05 02:45:06;;;;;;;6.70;3.67;;;;;;;;;;5002962;28;20052;-88
2022/09/05 02:47:50;;;;;;;6.03;3.47;;;;;;;;;;5006280;28;20150;-86
2022/09/05 02:50:34;;;;;;;5.78;3.38;;;;;;;;;;4999739;28;20083;-87
2022/09/05 02:53:00;;;;;;;6.20;3.97;;;;;;;;;;5017800;28;20057;-88
2022/09/05 02:55:30;;;;;;;6.35;3.50;;;;;;;;;;4984295;28;20042;-88
2022/09/05 02:58:16;;;;;;;6.10;3.63;;;;;;;;;;5016062;28;20052;-89
2022/09/05 03:00:48;;;;;;;8.70;3.75;;;;;;;;;;5006513;28;20396;-88
2022/09/05 03:03:49;;;;;;;6.68;3.53;;;;;;;;;;5000196;28;20044;-88
2022/09/05 03:06:26;;;;;;;6.53;3.45;;;;;;;;;;4936793;28;20533;-88
2022/09/05 03:09:26;;;;;;;8.48;3.65;;;;;;;;;;5016736;28;20052;-89
2022/09/05 03:12:21;;;;;;;7.18;3.70;;;;;;;;;;5016645;28;20388;-82
2022/09/05 03:15:08;;;;;;;6.80;3.88;;;;;;;;;;5016341;28;20033;-83
2022/09/05 03:17:36;;;;;;;9.00;3.70;;;;;;;;;;5000438;28;20079;-83
2022/09/05 03:20:07;;;;;;;6.03;3.67;;;;;;;;;;5025279;28;20033;-84
2022/09/05 03:22:55;;;;;;;7.45;3.97;;;;;;;;;;5009407;28;20041;-83
2022/09/05 03:25:32;;;;;;;6.47;3.80;;;;;;;;;;5023665;28;20091;-81
2022/09/05 03:28:25;;;;;;;6.47;3.75;;;;;;;;;;5015677;28;20038;-82
2022/09/05 03:31:00;;;;;;;6.00;3.72;;;;;;;;;;5029209;28;20392;-82
2022/09/05 03:33:55;;;;;;;6.78;3.75;;;;;;;;;;5003716;28;21019;-82
2022/09/05 03:36:29;;;;;;;7.07;3.53;;;;;;;;;;5014062;28;20045;-82
2022/09/05 03:39:01;;;;;;;10.98;4.18;;;;;;;;;;5004606;28;20422;-82
2022/09/05 03:41:53;;;;;;;7.57;4.22;;;;;;;;;;5026401;28;20045;-80
2022/09/05 03:44:33;;;;;;;7.47;4.13;;;;;;;;;;5017506;28;20108;-79
2022/09/05 03:47:36;;;;;;;7.70;4.20;;;;;;;;;;5023067;28;20036;-79
2022/09/05 03:50:35;;;;;;;7.18;3.80;;;;;;;;;;5020145;28;20033;-80
2022/09/05 03:53:19;;;;;;;7.55;3.60;;;;;;;;;;4967223;28;20034;-79
2022/09/05 03:55:56;;;;;;;9.13;3.78;;;;;;;;;;4967919;28;20520;-80
2022/09/05 03:59:02;;;;;;;7.95;3.85;;;;;;;;;;4974926;28;20034;-80
2022/09/05 04:01:49;;;;;;;6.75;3.63;;;;;;;;;;4982988;28;20034;-82
2022/09/05 04:04:49;;;;;;;7.93;3.75;;;;;;;;;;4981039;28;20125;-80
2022/09/05 04:07:20;;;;;;;8.55;4.00;;;;;;;;;;4957492;28;20261;-80
2022/09/05 04:09:55;;;;;;;7.13;3.88;;;;;;;;;;4958936;28;20062;-81
2022/09/05 04:12:24;;;;;;;7.18;3.78;;;;;;;;;;4971097;28;20065;-80
2022/09/05 04:15:04;;;;;;;6.65;4.00;;;;;;;;;;4972772;28;20042;-80
2022/09/05 04:17:38;;;;;;;8.10;4.13;;;;;;;;;;4983576;28;20034;-84
2022/09/05 04:20:15;;;;;;;6.22;3.75;;;;;;;;;;4977836;28;20039;-81
2022/09/05 04:23:02;;;;;;;7.80;3.70;;;;;;;;;;4980466;28;20042;-82
2022/09/05 04:26:01;;;;;;;7.95;3.50;;;;;;;;;;4969439;28;20481;-80
2022/09/05 04:28:49;;;;;;;6.82;3.78;;;;;;;;;;4979816;28;20035;-80
2022/09/05 04:31:21;;;;;;;7.47;3.67;;;;;;;;;;4986676;28;20054;-80
2022/09/05 04:34:26;;;;;;;6.63;3.83;;;;;;;;;;5018606;28;20034;-80
2022/09/05 04:37:07;;;;;;;5.80;3.47;;;;;;;;;;5001182;28;20030;-81
2022/09/05 04:39:35;;;;;;;5.78;3.13;;;;;;;;;;4989837;28;20049;-80
2022/09/05 04:42:13;;;;;;;6.78;3.58;;;;;;;;;;4994499;28;20042;-81
2022/09/05 04:45:06;;;;;;;5.13;3.45;;;;;;;;;;5015209;28;20123;-81
2022/09/05 04:47:42;;;;;;;6.90;3.47;;;;;;;;;;5010726;28;20037;-80
2022/09/05 04:50:13;;;;;;;6.90;3.60;;;;;;;;;;5024871;28;20981;-82
2022/09/05 04:53:13;;;;;;;7.22;3.50;;;;;;;;;;4994442;28;20116;-80
2022/09/05 04:56:03;;;;;;;7.70;3.35;;;;;;;;;;5002813;28;20052;-81
2022/09/05 04:58:35;;;;;;;10.10;3.45;;;;;;;;;;4990478;28;20391;-77
2022/09/05 05:01:30;;;;;;;6.07;3.65;;;;;;;;;;5002742;28;20562;-78
2022/09/05 05:04:04;;;;;;;6.75;3.45;;;;;;;;;;5005655;28;20048;-78
2022/09/05 05:06:46;;;;;;;7.30;3.40;;;;;;;;;;4979022;28;20121;-78
2022/09/05 05:09:21;;;;;;;7.43;3.80;;;;;;;;;;4990072;28;20069;-77
2022/09/05 05:11:52;;;;;;;6.15;3.10;;;;;;;;;;4986780;28;20034;-78
2022/09/05 05:14:41;;;;;;;7.13;3.30;;;;;;;;;;4996989;28;20493;-78
2022/09/05 05:17:19;;;;;;;5.53;3.33;;;;;;;;;;4986895;28;20180;-78
2022/09/05 05:19:47;;;;;;;4.90;3.05;;;;;;;;;;5014825;28;20033;-77
2022/09/05 05:22:14;;;;;;;8.18;3.35;;;;;;;;;;4989240;28;20109;-78
2022/09/05 05:24:50;;;;;;;8.40;3.20;;;;;;;;;;4986794;28;20129;-78
2022/09/05 05:27:18;;;;;;;6.72;3.00;;;;;;;;;;5014196;28;20507;-78
2022/09/05 05:29:48;;;;;;;7.18;3.35;;;;;;;;;;4998294;28;20039;-78
2022/09/05 05:32:29;;;;;;;7.00;3.17;;;;;;;;;;4986585;28;20109;-77
2022/09/05 05:35:01;;;;;;;7.13;3.30;;;;;;;;;;4997928;28;20591;-79
2022/09/05 05:37:30;;;;;;;5.50;3.05;;;;;;;;;;4992874;28;20487;-79
2022/09/05 05:40:03;;;;;;;5.38;3.15;;;;;;;;;;5014884;28;20316;-77
2022/09/05 05:42:28;;;;;;;5.60;3.00;;;;;;;;;;4998305;28;20037;-79
2022/09/05 05:44:56;;;;;;;7.45;3.10;;;;;;;;;;4998101;28;20033;-77
2022/09/05 05:47:34;;;;;;;;;;;;;;;;;;5005451;28;20064;-78
2022/09/05 05:50:06;;;;;;;9.45;3.95;;;;;;;;;;5003584;28;19924;-76
2022/09/05 05:52:56;;;;;;;4.97;3.20;;;;;;;;;;4986619;28;20097;-78
2022/09/05 05:55:51;;;;;;;8.77;3.63;;;;;;;;;;5004034;28;20489;-81
2022/09/05 05:58:54;;;;;;;7.65;3.88;;;;;;;;;;4996285;28;20026;-81
2022/09/05 06:01:45;;;;;;;6.95;3.10;;;;;;;;;;5015109;28;20042;-82
2022/09/05 06:07:10;;;;;;;5.95;2.88;;;;;;;;;;5015608;27;20401;-84
2022/09/05 06:09:47;;;;;;;8.70;3.30;;;;;;;;;;5001367;28;20038;-83
2022/09/05 06:12:31;;;;;;;;;;;;;;;;;;4969286;28;20038;-82
2022/09/05 06:15:24;;;;;;;5.63;2.90;;;;;;;;;;5002408;28;19922;-82
2022/09/05 06:18:43;;;;;;;7.80;3.00;;;;;;;;;;4970782;28;20477;-82
2022/09/05 06:21:20;;;;;;;5.72;2.72;;;;;;;;;;4932541;28;20075;-84
2022/09/05 06:24:07;;;;;;;7.20;2.80;;;;;;;;;;4928230;28;20090;-83
2022/09/05 06:26:50;;;;;;;4.50;2.60;;;;;;;;;;4894116;28;20499;-83
2022/09/05 06:29:15;;;;;;;4.35;2.60;;;;;;;;;;4930237;28;20043;-82
2022/09/05 06:32:08;;;;;;;7.15;3.17;;;;;;;;;;4920781;28;20043;-82
2022/09/05 06:34:33;;;;;;;6.05;2.60;;;;;;;;;;4928072;28;20195;-82
2022/09/05 06:37:18;;;;;;;6.25;3.95;;;;;;;;;;4934063;28;20527;-81
2022/09/05 06:39:56;;;;;;;9.88;4.47;;;;;;;;;;4930624;28;20515;-82
2022/09/05 06:42:39;;;;;;;5.82;2.83;;;;;;;;;;4911022;29;20119;-83
2022/09/05 06:45:21;;;;;;;5.68;2.75;;;;;;;;;;4930799;28;20131;-81
2022/09/05 06:47:54;;;;;;;5.00;2.80;;;;;;;;;;4913130;28;20395;-82
2022/09/05 06:50:20;;;;;;;5.85;2.67;;;;;;;;;;4914189;28;20050;-82
2022/09/05 06:52:51;;;;;;;6.53;2.70;;;;;;;;;;4944879;28;20039;-82
2022/09/05 06:55:35;;;;;;;6.10;2.60;;;;;;;;;;4995816;28;20520;-82
2022/09/05 06:58:21;;;;;;;5.35;2.28;;;;;;;;;;4996298;28;20027;-81
2022/09/05 07:00:52;;;;;;;4.05;2.58;;;;;;;;;;4983683;28;20610;-81
2022/09/05 07:03:49;;;;;;;9.25;2.97;;;;;;;;;;4983744;28;20035;-83
2022/09/05 07:06:32;;;;;;;4.55;2.40;;;;;;;;;;4990359;28;20046;-82
2022/09/05 07:09:28;;;;;;;5.88;2.70;;;;;;;;;;4983586;28;20393;-81
2022/09/05 07:12:08;;;;;;;6.03;3.00;;;;;;;;;;5001737;28;20050;-82
2022/09/05 07:14:43;;;;;;;4.07;2.38;;;;;;;;;;4971766;28;20046;-81
2022/09/05 07:17:24;;;;;;;6.05;2.38;;;;;;;;;;4975219;28;20583;-83
2022/09/05 07:19:54;;;;;;;5.25;2.70;;;;;;;;;;4993022;28;20149;-83
2022/09/05 07:22:34;;;;;;;5.15;2.40;;;;;;;;;;5004070;28;20494;-82
2022/09/05 07:25:06;;;;;;;7.20;2.67;;;;;;;;;;4974028;28;20096;-82
2022/09/05 07:27:54;;;;;;;5.07;2.47;;;;;;;;;;4988761;28;20041;-83
2022/09/05 07:30:20;;;;;;;5.95;2.40;;;;;;;;;;4968926;28;20609;-83
2022/09/05 07:32:52;;;;;;;4.35;2.65;;;;;;;;;;4990438;28;20055;-83
2022/09/05 07:35:22;;;;;;;4.78;2.28;;;;;;;;;;4991983;28;20148;-82
2022/09/05 07:38:12;;;;;;;4.85;2.17;;;;;;;;;;4972311;28;20037;-82
2022/09/05 07:40:42;;;;;;;5.30;2.08;;;;;;;;;;4979117;28;20442;-82
2022/09/05 07:43:21;;;;;;;6.35;2.45;;;;;;;;;;4993181;28;20049;-83
2022/09/05 07:46:13;;;;;;;8.70;2.75;;;;;;;;;;4975550;28;20070;-83
2022/09/05 07:48:51;;;;;;;10.48;5.35;;;;;;;;;;4970397;28;20042;-84
2022/09/05 07:51:21;;;;;;;5.85;2.60;;;;;;;;;;4992269;28;20454;-82
2022/09/05 07:53:47;;;;;;;7.70;3.30;;;;;;;;;;4943753;28;20030;-85
2022/09/05 07:56:13;;;;;;;8.20;2.60;;;;;;;;;;5003928;28;20042;-82
2022/09/05 07:58:50;;;;;;;6.57;2.58;;;;;;;;;;5002017;28;20146;-82
2022/09/05 08:01:17;;;;;;;5.70;2.60;;;;;;;;;;4991023;28;20711;-85
2022/09/05 08:03:45;;;;;;;4.50;2.60;;;;;;;;;;4973808;28;20043;-84
2022/09/05 08:06:17;;;;;;;4.57;2.30;;;;;;;;;;4972987;28;20050;-85
2022/09/05 08:09:24;;;;;;;3.92;2.25;;;;;;;;;;4956724;28;20047;-83
2022/09/05 08:11:49;;;;;;;;;;;;;;;;;;4970131;28;20041;-83
2022/09/05 08:14:51;;;;;;;5.55;2.58;;;;;;;;;;4931285;28;20299;-86
2022/09/05 08:17:19;;;;;;;4.65;2.58;;;;;;;;;;4958045;28;20035;-84
2022/09/05 08:20:00;;;;;;;5.10;2.45;;;;;;;;;;4954508;28;20035;-84
2022/09/05 08:22:30;;;;;;;5.38;2.38;;;;;;;;;;4955252;28;20038;-83
2022/09/05 08:25:15;;;;;;;7.13;2.22;;;;;;;;;;4929572;28;20140;-84
2022/09/05 08:27:53;;;;;;;7.15;2.35;;;;;;;;;;4939427;28;20130;-86
2022/09/05 08:30:19;;;;;;;6.05;2.70;;;;;;;;;;4949560;28;20031;-84
2022/09/05 08:32:51;;;;;;;4.28;2.25;;;;;;;;;;4958236;28;20053;-84
2022/09/05 08:35:27;;;;;;;5.70;2.88;;;;;;;;;;4950363;28;20517;-84
2022/09/05 08:37:53;;;;;;;4.90;2.25;;;;;;;;;;4957445;28;20039;-86
2022/09/05 08:40:26;;;;;;;4.88;2.50;;;;;;;;;;4940631;28;20042;-85
2022/09/05 08:43:13;;;;;;;5.25;2.75;;;;;;;;;;4965301;28;20026;-85
2022/09/05 08:45:40;;;;;;;6.40;2.60;;;;;;;;;;4956095;28;20397;-85
2022/09/05 08:48:41;;;;;;;3.95;2.10;;;;;;;;;;4973809;28;20524;-83
2022/09/05 08:51:33;;;;;;;5.70;2.72;;;;;;;;;;4970046;28;20117;-82
2022/09/05 08:54:20;;;;;;;3.97;2.15;;;;;;;;;;4967264;28;20034;-84
2022/09/05 08:56:50;;;;;;;5.05;2.33;;;;;;;;;;5002702;28;20766;-83
2022/09/05 08:59:27;;;;;;;3.95;2.10;;;;;;;;;;4986558;28;20035;-84
2022/09/05 09:02:17;;;;;;;3.97;2.08;;;;;;;;;;4995661;28;20031;-85
2022/09/05 09:04:44;;;;;;;4.97;2.10;;;;;;;;;;4975403;28;20539;-84
2022/09/05 09:07:27;;;;;;;;;;;;;;;;;;4960644;28;20035;-83
2022/09/05 09:10:01;;;;;;;4.43;1.92;;;;;;;;;;5006381;28;19964;-85
2022/09/05 09:12:47;;;;;;;3.97;2.13;;;;;;;;;;4967476;28;20503;-85
2022/09/05 09:15:23;;;;;;;4.05;1.95;;;;;;;;;;4947951;28;20868;-86
2022/09/05 09:17:50;;;;;;;5.00;2.35;;;;;;;;;;4971634;28;20050;-86
2022/09/05 09:20:39;;;;;;;3.60;2.00;;;;;;;;;;4945646;28;20522;-85
2022/09/05 09:23:09;;;;;;;3.97;2.10;;;;;;;;;;4986048;28;20452;-83
2022/09/05 09:25:34;;;;;;;4.95;1.95;;;;;;;;;;5004055;28;20506;-84
2022/09/05 09:28:42;;;;;;;3.38;1.92;;;;;;;;;;4972122;28;20041;-83
2022/09/05 09:31:10;;;;;;;4.25;2.00;;;;;;;;;;4954006;28;20031;-84
2022/09/05 09:33:40;;;;;;;4.22;1.88;;;;;;;;;;4969358;28;20058;-84
2022/09/05 09:36:21;;;;;;;3.08;1.70;;;;;;;;;;4984169;28;20096;-86
2022/09/05 09:38:58;;;;;;;3.45;1.70;;;;;;;;;;4975289;28;20062;-84
2022/09/05 09:41:32;;;;;;;3.00;1.80;;;;;;;;;;4998407;28;20125;-85
2022/09/05 09:44:09;;;;;;;5.78;2.08;;;;;;;;;;4974214;28;20038;-84
2022/09/05 09:46:42;;;;;;;3.65;1.98;;;;;;;;;;4984477;28;20058;-84
2022/09/05 09:49:13;;;;;;;3.92;1.70;;;;;;;;;;4999201;28;20043;-85
2022/09/05 09:51:56;;;;;;;4.35;1.90;;;;;;;;;;4983875;28;20042;-85
2022/09/05 09:54:31;;;;;;;3.78;1.90;;;;;;;;;;4972042;28;20061;-85
2022/09/05 09:57:02;;;;;;;9.68;2.25;;;;;;;;;;5002875;28;20031;-84
2022/09/05 09:59:46;;;;;;;4.47;2.25;;;;;;;;;;4972975;28;20121;-85
2022/09/05 10:02:48;;;;;;;3.90;2.15;;;;;;;;;;4975398;28;20059;-83
2022/09/05 10:05:46;;;;;;;4.82;2.20;;;;;;;;;;4984198;28;20051;-83
2022/09/05 10:08:21;;;;;;;8.93;2.47;;;;;;;;;;5009794;28;20038;-84
2022/09/05 10:10:52;;;;;;;3.65;2.30;;;;;;;;;;4973180;28;20069;-84
2022/09/05 10:13:32;;;;;;;3.72;2.25;;;;;;;;;;4983734;28;20039;-85
2022/09/05 10:16:52;;;;;;;4.75;2.08;;;;;;;;;;4990054;28;20058;-83
2022/09/05 10:19:47;;;;;;;4.05;2.17;;;;;;;;;;4971550;28;20041;-85
2022/09/05 10:22:18;;;;;;;6.45;2.17;;;;;;;;;;4940317;28;20040;-85
2022/09/05 10:25:02;;;;;;;6.70;2.35;;;;;;;;;;4979429;28;20131;-86
2022/09/05 10:27:27;;;;;;;4.30;2.00;;;;;;;;;;5005336;28;20495;-86
2022/09/05 10:30:22;;;;;;;4.38;2.17;;;;;;;;;;4976679;28;20125;-85
2022/09/05 10:32:56;;;;;;;4.53;2.00;;;;;;;;;;4968001;28;20042;-86
2022/09/05 10:35:36;;;;;;;5.55;1.92;;;;;;;;;;5000495;28;20045;-86
2022/09/05 10:38:07;;;;;;;3.53;1.73;;;;;;;;;;4988440;28;20038;-85
2022/09/05 10:40:34;;;;;;;3.40;1.77;;;;;;;;;;4955248;28;20536;-87
2022/09/05 10:43:08;;;;;;;;;;;;;;;;;;4953419;28;20035;-87
2022/09/05 10:45:56;;;;;;;8.27;2.05;;;;;;;;;;4991311;28;20013;-86
2022/09/05 10:48:53;;;;;;;7.40;1.70;;;;;;;;;;4971272;28;20482;-86
2022/09/05 10:51:28;;;;;;;3.55;1.40;;;;;;;;;;4967907;28;20466;-84
2022/09/05 10:54:12;;;;;;;5.07;1.42;;;;;;;;;;4973024;28;20045;-86
2022/09/05 10:56:49;;;;;;;4.40;1.65;;;;;;;;;;4978658;28;20086;-85
2022/09/05 10:59:34;;;;;;;;;;;;;;;;;;4951279;28;20055;-88
2022/09/05 11:02:05;;;;;;;2.67;1.50;;;;;;;;;;5006731;28;20399;-86
2022/09/05 11:04:31;;;;;;;4.60;1.60;;;;;;;;;;4984645;28;20043;-87
2022/09/05 11:07:14;;;;;;;2.90;1.40;;;;;;;;;;4979859;28;20042;-83
2022/09/05 11:10:01;;;;;;;2.80;1.40;;;;;;;;;;4991767;28;20039;-87
2022/09/05 11:12:51;;;;;;;2.80;1.52;;;;;;;;;;4969388;28;20045;-85
2022/09/05 11:15:16;;;;;;;3.60;1.50;;;;;;;;;;4976548;28;20054;-86
2022/09/05 11:18:04;;;;;;;4.25;1.58;;;;;;;;;;4967505;28;20410;-86
2022/09/05 11:20:34;;;;;;;2.78;1.50;;;;;;;;;;4966286;28;20526;-85
2022/09/05 11:23:07;;;;;;;4.95;1.40;;;;;;;;;;4990601;28;20486;-85
2022/09/05 11:25:34;;;;;;;2.58;1.50;;;;;;;;;;4973512;28;20030;-86
2022/09/05 11:28:08;;;;;;;7.55;2.25;;;;;;;;;;4955820;28;20041;-84
2022/09/05 11:30:39;;;;;;;3.75;1.83;;;;;;;;;;4939627;28;20127;-84
2022/09/05 11:33:31;;;;;;;3.45;1.50;;;;;;;;;;4948630;28;20109;-86
2022/09/05 11:36:32;;;;;;;4.00;1.55;;;;;;;;;;4959391;28;20054;-87
2022/09/05 11:39:22;;;;;;;3.00;1.60;;;;;;;;;;4970886;28;20130;-86
2022/09/05 11:42:03;;;;;;;4.13;1.50;;;;;;;;;;4985060;28;20113;-88
2022/09/05 11:44:55;;;;;;;3.10;1.70;;;;;;;;;;4963672;28;20441;-85
2022/09/05 11:47:48;;;;;;;3.83;1.73;;;;;;;;;;4951211;28;20148;-86
2022/09/05 11:50:41;;;;;;;3.15;1.80;;;;;;;;;;5001999;28;20048;-86
2022/09/05 11:53:35;;;;;;;4.15;1.80;;;;;;;;;;5004363;28;20038;-84
2022/09/05 11:56:16;;;;;;;3.78;2.00;;;;;;;;;;4973636;28;20050;-85
2022/09/05 11:58:50;;;;;;;4.60;1.95;;;;;;;;;;5006410;28;20050;-85
2022/09/05 12:01:44;;;;;;;3.95;1.95;;;;;;;;;;4968758;28;20039;-85
2022/09/05 12:04:19;;;;;;;4.13;2.10;;;;;;;;;;4991386;28;20035;-84
2022/09/05 12:07:05;;;;;;;3.00;1.90;;;;;;;;;;4988689;28;20480;-84
2022/09/05 12:09:31;;;;;;;3.17;1.80;;;;;;;;;;5006604;28;20066;-85
2022/09/05 12:12:25;;;;;;;4.55;2.30;;;;;;;;;;4974029;28;20037;-84
2022/09/05 12:15:15;;;;;;;4.50;2.58;;;;;;;;;;4991384;28;20038;-84
2022/09/05 12:18:01;;;;;;;5.40;2.53;;;;;;;;;;4958010;28;20513;-85
2022/09/05 12:20:32;;;;;;;4.43;2.08;;;;;;;;;;4976672;28;20335;-84
2022/09/05 12:23:16;;;;;;;4.15;2.30;;;;;;;;;;4971950;28;20421;-84
2022/09/05 12:26:00;;;;;;;8.82;2.58;;;;;;;;;;4989677;28;20038;-84
2022/09/05 12:28:38;;;;;;;4.95;2.30;;;;;;;;;;4972924;28;20039;-83
2022/09/05 12:31:20;;;;;;;4.95;2.70;;;;;;;;;;4969038;28;20042;-85
2022/09/05 12:33:47;;;;;;;4.00;2.53;;;;;;;;;;4962987;28;20039;-85
2022/09/05 12:36:15;;;;;;;5.55;2.55;;;;;;;;;;4986040;28;20043;-83
2022/09/05 12:38:51;;;;;;;3.80;2.42;;;;;;;;;;4975194;28;20035;-86
2022/09/05 12:41:25;;;;;;;3.50;2.40;;;;;;;;;;4955440;28;20057;-84
2022/09/05 12:44:21;;;;;;;4.88;2.58;;;;;;;;;;5002332;28;20756;-85
2022/09/05 12:46:56;;;;;;;4.57;2.80;;;;;;;;;;4974523;28;20042;-83
2022/09/05 12:49:33;;;;;;;4.60;2.60;;;;;;;;;;4970710;28;20390;-86
2022/09/05 12:52:04;;;;;;;4.32;2.60;;;;;;;;;;4951098;28;20038;-86
2022/09/05 12:54:49;;;;;;;4.03;2.60;;;;;;;;;;4956864;28;20050;-84
2022/09/05 12:57:38;;;;;;;4.68;2.70;;;;;;;;;;4944924;28;20043;-86
2022/09/05 13:00:13;;;;;;;6.18;2.80;;;;;;;;;;4990037;28;20089;-85
2022/09/05 13:02:44;;;;;;;3.78;2.30;;;;;;;;;;4940963;28;20027;-84
2022/09/05 13:05:13;;;;;;;5.20;2.55;;;;;;;;;;4987311;28;20046;-85
2022/09/05 13:07:45;;;;;;;4.00;2.65;;;;;;;;;;5003194;28;20026;-86
2022/09/05 13:10:32;;;;;;;4.03;2.80;;;;;;;;;;4989454;28;20034;-85
2022/09/05 13:13:02;;;;;;;3.85;2.30;;;;;;;;;;4986473;28;20038;-84
2022/09/05 13:15:34;;;;;;;4.72;2.65;;;;;;;;;;4988805;28;20100;-86
2022/09/05 13:18:09;;;;;;;4.38;2.53;;;;;;;;;;4973557;28;20478;-86
2022/09/05 13:20:38;;;;;;;4.25;2.53;;;;;;;;;;4970270;28;20039;-84
2022/09/05 13:23:15;;;;;;;3.83;2.55;;;;;;;;;;4967150;28;20061;-85
2022/09/05 13:25:46;;;;;;;4.35;2.65;;;;;;;;;;4970601;28;20556;-85
2022/09/05 13:28:13;;;;;;;4.30;2.80;;;;;;;;;;4964456;28;20034;-87
2022/09/05 13:30:49;;;;;;;5.30;2.75;;;;;;;;;;4939759;28;20384;-86
2022/09/05 13:33:26;;;;;;;5.20;2.60;;;;;;;;;;4950209;28;20106;-87
2022/09/05 13:36:04;;;;;;;3.45;2.55;;;;;;;;;;4952542;28;20035;-85
2022/09/05 13:38:58;;;;;;;5.35;3.08;;;;;;;;;;4941731;28;20509;-85
2022/09/05 13:41:34;;;;;;;6.03;2.92;;;;;;;;;;4961739;28;20450;-86
2022/09/05 13:44:10;;;;;;;4.75;2.92;;;;;;;;;;4953915;28;20510;-87
2022/09/05 13:46:52;;;;;;;5.35;3.35;;;;;;;;;;4951010;28;20505;-85
2022/09/05 13:49:36;;;;;;;4.78;2.75;;;;;;;;;;4927064;28;20456;-88
2022/09/05 13:52:19;;;;;;;4.50;2.60;;;;;;;;;;4935296;28;20028;-85
2022/09/05 13:54:50;;;;;;;4.25;2.70;;;;;;;;;;4952664;28;20410;-84
2022/09/05 13:57:33;;;;;;;7.07;3.38;;;;;;;;;;4931393;28;24256;-84
2022/09/05 14:00:17;;;;;;;4.60;3.20;;;;;;;;;;5001289;28;20533;-84
2022/09/05 14:03:20;;;;;;;4.88;2.90;;;;;;;;;;4997206;28;20059;-85
2022/09/05 14:05:57;;;;;;;4.47;3.05;;;;;;;;;;4972071;28;22919;-88
2022/09/05 14:08:34;;;;;;;4.22;3.08;;;;;;;;;;4974534;28;20049;-88
2022/09/05 14:11:30;;;;;;;4.55;2.95;;;;;;;;;;5003274;28;20125;-86
2022/09/05 14:14:22;;;;;;;4.13;2.87;;;;;;;;;;4968934;28;20110;-86
2022/09/05 14:17:03;;;;;;;4.05;2.67;;;;;;;;;;4998666;28;20302;-87
2022/09/05 14:22:33;;;;;;;3.92;2.67;;;;;;;;;;4994046;28;20069;-88
2022/09/05 14:24:59;;;;;;;6.07;2.90;;;;;;;;;;4987064;28;20031;-85
2022/09/05 14:27:25;;;;;;;5.43;2.70;;;;;;;;;;4954822;28;20049;-88
2022/09/05 14:29:52;;;;;;;4.63;2.70;;;;;;;;;;4990109;28;20027;-90
2022/09/05 14:32:18;;;;;;;;;;;;;;;;;;4959449;28;20124;-89
2022/09/05 14:34:51;;;;;;;7.57;3.00;;;;;;;;;;4972119;28;19914;-88
2022/09/05 14:37:23;;;;;;;5.05;2.60;;;;;;;;;;4994812;28;20038;-89
2022/09/05 14:40:04;;;;;;;4.75;2.50;;;;;;;;;;4999330;28;20034;-89
2022/09/05 14:43:06;;;;;;;4.00;2.70;;;;;;;;;;4971612;28;20383;-88
2022/09/05 14:45:53;;;;;;;6.28;2.90;;;;;;;;;;5006800;28;20121;-88
2022/09/05 14:48:43;;;;;;;5.70;2.90;;;;;;;;;;4991280;28;20035;-88
2022/09/05 14:51:10;;;;;;;5.03;2.95;;;;;;;;;;5006205;28;20113;-89
2022/09/05 14:53:54;;;;;;;4.63;2.70;;;;;;;;;;4997813;28;20034;-88
2022/09/05 14:56:27;;;;;;;5.38;3.05;;;;;;;;;;4971753;28;20030;-89
2022/09/05 14:59:13;;;;;;;6.38;3.00;;;;;;;;;;4990033;28;20058;-87
2022/09/05 15:02:17;;;;;;;4.35;2.78;;;;;;;;;;4976071;28;20098;-89
2022/09/05 15:04:43;;;;;;;5.38;2.72;;;;;;;;;;4973533;28;20517;-87
2022/09/05 15:07:30;;;;;;;5.43;3.08;;;;;;;;;;4987773;28;20374;-90
2022/09/05 15:10:20;;;;;;;5.47;2.75;;;;;;;;;;4991039;28;20050;-89
2022/09/05 15:12:47;;;;;;;3.90;2.80;;;;;;;;;;5002191;28;20408;-86
2022/09/05 15:15:20;;;;;;;4.97;2.85;;;;;;;;;;4970138;28;20200;-90
2022/09/05 15:17:48;;;;;;;4.50;2.80;;;;;;;;;;4978318;28;20035;-89
2022/09/05 15:20:49;;;;;;;4.07;3.10;;;;;;;;;;4992675;28;20030;-89
2022/09/05 15:23:23;;;;;;;4.85;3.10;;;;;;;;;;4953042;28;20042;-88
2022/09/05 15:26:01;;;;;;;4.50;3.08;;;;;;;;;;4975589;28;20493;-87
2022/09/05 15:28:44;;;;;;;10.25;3.42;;;;;;;;;;4960191;28;20042;-89
2022/09/05 15:31:20;;;;;;;5.35;2.75;;;;;;;;;;4983428;28;20035;-90
2022/09/05 15:33:47;;;;;;;4.57;3.17;;;;;;;;;;4977725;28;20096;-84
2022/09/05 15:36:16;;;;;;;5.40;3.00;;;;;;;;;;4956581;28;20907;-86
2022/09/05 15:38:42;;;;;;;4.22;2.85;;;;;;;;;;4993153;28;20041;-84
2022/09/05 15:41:29;;;;;;;5.65;3.00;;;;;;;;;;4962068;28;20381;-84
2022/09/05 15:43:59;;;;;;;5.13;2.87;;;;;;;;;;4997272;28;20472;-84
2022/09/05 15:46:38;;;;;;;4.97;3.10;;;;;;;;;;4960297;28;20117;-83
2022/09/05 15:49:27;;;;;;;7.00;3.10;;;;;;;;;;4983862;28;20071;-84
2022/09/05 15:52:01;;;;;;;4.75;2.83;;;;;;;;;;4959479;28;20037;-83
2022/09/05 15:54:30;;;;;;;6.47;3.13;;;;;;;;;;4944223;28;20491;-83
2022/09/05 15:56:58;;;;;;;6.63;2.97;;;;;;;;;;4989726;28;20128;-82
2022/09/05 15:59:28;;;;;;;4.75;2.97;;;;;;;;;;4973704;28;20461;-82
2022/09/05 16:01:59;;;;;;;6.85;3.50;;;;;;;;;;4955825;28;20034;-84
2022/09/05 16:04:25;;;;;;;6.07;2.85;;;;;;;;;;4985474;28;20483;-83
2022/09/05 16:06:58;;;;;;;5.35;3.70;;;;;;;;;;4959500;28;20050;-83